createdAt,value
2022-10-01T00:00:21.821Z,40.90
2022-10-01T00:01:24.821Z,35.78
2022-10-01T00:02:29.401Z,37.05
2022-10-01T00:03:33.838Z,42.50
2022-10-01T00:04:37.915Z,38.42
2022-10-01T00:05:46.079Z,39.65
2022-10-01T00:06:48.242Z,41.22
2022-10-01T00:07:51.709Z,39.35
2022-10-01T00:08:57.767Z,43.05
2022-10-01T00:10:01.084Z,41.17
2022-10-01T00:12:32.715Z,44.08
2022-10-01T00:13:38.750Z,41.28
2022-10-01T00:14:40.859Z,40.47
2022-10-01T00:15:47.234Z,41.45
2022-10-01T00:16:51.313Z,43.00
2022-10-01T00:17:58.079Z,43.85
2022-10-01T00:19:00.738Z,43.75
2022-10-01T00:20:14.023Z,42.30
2022-10-01T00:21:21.584Z,43.65
2022-10-01T00:22:27.036Z,42.08
2022-10-01T00:23:29.126Z,46.83
2022-10-01T00:24:38.674Z,44.22
2022-10-01T00:25:41.958Z,45.97
2022-10-01T00:26:48.975Z,45.28
2022-10-01T00:27:52.422Z,44.15
2022-10-01T00:29:25.317Z,47.33
2022-10-01T00:30:27.677Z,46.80
2022-10-01T00:31:30.871Z,48.00
2022-10-01T00:32:36.400Z,41.53
2022-10-01T00:33:41.086Z,38.83
2022-10-01T00:34:43.819Z,47.50
2022-10-01T00:35:46.295Z,42.63
2022-10-01T00:36:49.491Z,45.47
2022-10-01T00:37:54.868Z,49.13
2022-10-01T00:39:00.961Z,42.88
2022-10-01T00:40:09.739Z,44.40
2022-10-01T00:41:14.468Z,43.03
2022-10-01T00:42:27.170Z,43.78
2022-10-01T00:43:32.696Z,44.95
2022-10-01T00:44:37.547Z,49.00
2022-10-01T00:45:39.808Z,49.75
2022-10-01T00:46:45.078Z,50.28
2022-10-01T00:47:57.525Z,54.92
2022-10-01T00:49:13.843Z,49.70
2022-10-01T00:50:35.028Z,51.75
2022-10-01T00:51:47.126Z,50.03
2022-10-01T00:52:58.547Z,50.55
2022-10-01T00:54:12.512Z,52.72
2022-10-01T00:55:23.168Z,59.25
2022-10-01T00:56:33.293Z,54.80
2022-10-01T00:57:36.709Z,51.17
2022-10-01T00:58:42.146Z,49.38
2022-10-01T00:59:45.923Z,52.00
2022-10-01T01:00:58.143Z,56.67
2022-10-01T01:02:04.110Z,55.42
2022-10-01T01:03:11.234Z,53.63
2022-10-01T01:04:18.929Z,55.50
2022-10-01T01:05:23.580Z,56.13
2022-10-01T01:06:26.966Z,53.38
2022-10-01T01:07:32.685Z,57.03
2022-10-01T01:08:37.675Z,57.60
2022-10-01T01:09:48.811Z,55.13
2022-10-01T01:11:05.300Z,57.42
2022-10-01T01:12:10.260Z,50.05
2022-10-01T01:13:27.318Z,53.17
2022-10-01T01:15:04.907Z,61.55
2022-10-01T01:16:16.624Z,53.20
2022-10-01T01:17:52.721Z,63.45
2022-10-01T01:19:43.919Z,58.03
2022-10-01T01:20:56.625Z,55.03
2022-10-01T01:22:04.594Z,58.30
2022-10-01T01:23:16.607Z,56.63
2022-10-01T01:24:51.901Z,58.20
2022-10-01T01:26:06.060Z,64.00
2022-10-01T01:27:29.432Z,57.53
2022-10-01T01:28:39.241Z,57.97
2022-10-01T01:29:55.715Z,58.30
2022-10-01T01:31:25.150Z,53.20
2022-10-01T01:32:42.943Z,59.13
2022-10-01T01:33:49.957Z,55.17
2022-10-01T01:34:59.206Z,63.53
2022-10-01T01:36:18.485Z,54.15
2022-10-01T01:37:29.936Z,61.58
2022-10-01T01:38:39.276Z,51.78
2022-10-01T01:39:51.798Z,59.50
2022-10-01T01:41:02.089Z,53.85
2022-10-01T01:42:11.550Z,58.70
2022-10-01T01:43:18.807Z,58.03
2022-10-01T01:44:31.814Z,57.08
2022-10-01T01:45:43.530Z,59.30
2022-10-01T01:46:50.303Z,62.20
2022-10-01T01:47:56.304Z,62.65
2022-10-01T01:49:05.505Z,61.60
2022-10-01T01:50:09.904Z,59.42
2022-10-01T01:51:27.547Z,66.80
2022-10-01T01:52:30.973Z,60.13
2022-10-01T01:53:34.099Z,58.65
2022-10-01T01:54:39.677Z,59.22
2022-10-01T01:55:46.097Z,61.35
2022-10-01T01:56:51.671Z,64.03
2022-10-01T01:58:01.026Z,61.58
2022-10-01T01:59:06.622Z,53.78
2022-10-01T02:00:13.724Z,62.15
2022-10-01T02:01:36.562Z,57.28
2022-10-01T02:02:42.035Z,55.22
2022-10-01T02:03:44.303Z,56.22
2022-10-01T02:05:04.109Z,53.88
2022-10-01T02:06:33.819Z,60.25
2022-10-01T02:07:56.644Z,56.88
2022-10-01T02:09:34.075Z,62.08
2022-10-01T02:10:53.875Z,64.03
2022-10-01T02:12:16.342Z,58.90
2022-10-01T02:13:53.297Z,56.75
2022-10-01T02:19:03.722Z,55.47
2022-10-01T02:20:33.088Z,62.15
2022-10-01T02:21:53.311Z,56.85
2022-10-01T02:23:18.857Z,54.70
2022-10-01T02:24:49.586Z,58.25
2022-10-01T02:26:07.594Z,57.92
2022-10-01T02:29:23.863Z,53.35
2022-10-01T02:30:33.444Z,54.50
2022-10-01T02:31:55.056Z,55.85
2022-10-01T02:33:06.040Z,56.92
2022-10-01T02:35:58.571Z,56.42
2022-10-01T02:37:11.374Z,57.10
2022-10-01T02:38:24.581Z,56.60
2022-10-01T02:39:32.371Z,56.70
2022-10-01T02:40:45.529Z,56.42
2022-10-01T02:41:55.030Z,59.00
2022-10-01T02:48:09.017Z,59.95
2022-10-01T02:49:16.715Z,56.58
2022-10-01T02:50:34.742Z,60.67
2022-10-01T02:51:49.669Z,57.20
2022-10-01T02:53:45.509Z,54.92
2022-10-01T02:55:01.192Z,60.35
2022-10-01T02:56:48.553Z,58.65
2022-10-01T02:58:06.385Z,59.45
2022-10-01T03:01:57.116Z,61.35
2022-10-01T03:04:22.791Z,59.42
2022-10-01T03:05:47.551Z,60.88
2022-10-01T03:10:04.343Z,65.43
2022-10-01T03:11:22.650Z,65.18
2022-10-01T03:12:36.646Z,69.50
2022-10-01T03:15:24.028Z,68.97
2022-10-01T03:21:36.182Z,60.75
2022-10-01T03:23:15.711Z,70.25
2022-10-01T03:29:13.019Z,68.97
2022-10-01T03:30:40.539Z,65.38
2022-10-01T03:33:15.754Z,66.05
2022-10-01T03:34:26.873Z,65.15
2022-10-01T03:35:36.818Z,66.97
2022-10-01T03:38:04.486Z,66.80
2022-10-01T03:39:18.958Z,62.63
2022-10-01T03:47:58.256Z,63.03
2022-10-01T03:49:04.028Z,68.07
2022-10-01T03:50:22.465Z,67.88
2022-10-01T03:51:47.728Z,68.35
2022-10-01T03:55:49.388Z,73.35
2022-10-01T03:56:56.248Z,66.88
2022-10-01T03:59:38.163Z,72.38
2022-10-01T04:02:14.477Z,70.43
2022-10-01T04:04:51.294Z,79.50
2022-10-01T04:06:07.064Z,82.97
2022-10-01T04:07:15.320Z,84.80
2022-10-01T04:09:42.668Z,76.43
2022-10-01T04:13:36.396Z,71.57
2022-10-01T04:16:06.101Z,73.18
2022-10-01T04:29:47.064Z,68.15
2022-10-01T04:31:27.388Z,67.03
2022-10-01T04:32:34.887Z,64.90
2022-10-01T04:41:38.028Z,64.25
2022-10-01T06:11:04.649Z,51.17
2022-10-01T06:13:30.263Z,48.22
2022-10-01T06:14:36.616Z,49.58
2022-10-01T06:15:57.327Z,50.72
2022-10-01T06:17:02.642Z,49.50
2022-10-01T06:18:19.026Z,43.83
2022-10-01T06:19:26.715Z,53.05
2022-10-01T06:20:35.074Z,50.60
2022-10-01T06:21:40.196Z,50.90
2022-10-01T06:22:44.529Z,49.00
2022-10-01T06:24:05.161Z,45.55
2022-10-01T06:25:18.418Z,48.92
2022-10-01T06:26:22.733Z,46.83
2022-10-01T06:27:29.742Z,46.30
2022-10-01T06:28:34.661Z,47.88
2022-10-01T06:29:50.729Z,43.67
2022-10-01T06:30:55.667Z,49.30
2022-10-01T06:32:01.146Z,42.00
2022-10-01T06:33:24.381Z,40.90
2022-10-01T06:34:28.270Z,46.88
2022-10-01T06:35:35.838Z,47.30
2022-10-01T06:37:54.759Z,43.47
2022-10-01T06:39:07.977Z,43.15
2022-10-01T06:40:17.235Z,44.25
2022-10-01T06:41:23.188Z,42.33
2022-10-01T06:42:28.049Z,42.50
2022-10-01T06:43:34.981Z,41.95
2022-10-01T06:44:41.617Z,43.03
2022-10-01T06:45:45.662Z,47.92
2022-10-01T06:46:49.247Z,42.72
2022-10-01T06:48:13.780Z,44.53
2022-10-01T06:49:21.940Z,45.28
2022-10-01T06:50:26.032Z,47.15
2022-10-01T06:51:49.889Z,60.38
2022-10-01T06:52:57.346Z,48.58
2022-10-01T06:54:00.143Z,49.78
2022-10-01T06:55:03.688Z,52.83
2022-10-01T06:56:08.592Z,49.63
2022-10-01T06:57:11.416Z,57.42
2022-10-01T06:58:18.486Z,55.38
2022-10-01T06:59:21.684Z,51.97
2022-10-01T07:00:24.028Z,51.80
2022-10-01T07:01:31.993Z,56.13
2022-10-01T07:02:38.076Z,56.53
2022-10-01T07:03:40.883Z,54.63
2022-10-01T07:04:45.508Z,56.08
2022-10-01T07:05:56.936Z,51.53
2022-10-01T07:07:08.720Z,54.30
2022-10-01T07:08:58.548Z,56.05
2022-10-01T07:11:30.504Z,57.05
2022-10-01T07:12:52.427Z,56.63
2022-10-01T07:14:32.152Z,51.47
2022-10-01T07:15:46.756Z,56.92
2022-10-01T07:18:39.666Z,56.20
2022-10-01T07:19:46.315Z,53.50
2022-10-01T07:20:59.437Z,53.53
2022-10-01T07:22:04.580Z,56.50
2022-10-01T07:24:30.848Z,49.75
2022-10-01T07:25:35.881Z,52.97
2022-10-01T07:28:10.982Z,51.50
2022-10-01T07:32:07.375Z,49.00
2022-10-01T07:35:59.327Z,57.47
2022-10-01T07:37:20.284Z,49.95
2022-10-01T07:40:17.604Z,46.60
2022-10-01T07:42:43.293Z,44.08
2022-10-01T07:44:12.702Z,44.85
2022-10-01T07:45:29.969Z,45.80
2022-10-01T07:46:40.348Z,47.35
2022-10-01T07:49:31.556Z,47.95
2022-10-01T07:50:45.297Z,46.92
2022-10-01T07:51:52.576Z,47.75
2022-10-01T07:54:28.439Z,49.83
2022-10-01T07:55:57.181Z,48.20
2022-10-01T07:57:05.217Z,55.58
2022-10-01T07:58:11.092Z,45.08
2022-10-01T07:59:22.669Z,41.35
2022-10-01T08:01:53.027Z,46.20
2022-10-01T08:06:51.946Z,49.38
2022-10-01T08:09:26.659Z,45.25
2022-10-01T08:12:10.018Z,46.90
2022-10-01T08:13:27.821Z,42.83
2022-10-01T08:14:56.800Z,43.90
2022-10-01T08:16:09.913Z,44.53
2022-10-01T08:17:15.869Z,44.70
2022-10-01T08:18:18.959Z,41.17
2022-10-01T08:19:22.338Z,45.40
2022-10-01T08:20:31.619Z,47.95
2022-10-01T08:21:36.196Z,42.78
2022-10-01T08:22:44.416Z,42.58
2022-10-01T08:23:51.589Z,47.17
2022-10-01T08:24:56.784Z,44.95
2022-10-01T08:26:06.267Z,48.13
2022-10-01T08:27:10.101Z,47.50
2022-10-01T08:28:13.179Z,45.63
2022-10-01T08:29:17.780Z,44.53
2022-10-01T08:30:20.214Z,47.00
2022-10-01T08:31:22.323Z,43.70
2022-10-01T08:32:26.569Z,49.30
2022-10-01T08:33:28.682Z,46.60
2022-10-01T08:34:33.949Z,44.92
2022-10-01T08:35:39.657Z,44.45
2022-10-01T08:36:43.144Z,45.60
2022-10-01T08:37:48.483Z,48.97
2022-10-01T08:38:50.688Z,46.38
2022-10-01T08:39:52.876Z,42.83
2022-10-01T08:40:58.007Z,45.08
2022-10-01T08:42:02.376Z,44.72
2022-10-01T08:43:07.275Z,54.47
2022-10-01T08:44:24.098Z,45.80
2022-10-01T08:45:35.120Z,46.78
2022-10-01T08:46:37.780Z,43.58
2022-10-01T08:47:53.758Z,45.28
2022-10-01T08:49:08.423Z,45.67
2022-10-01T08:50:27.424Z,45.40
2022-10-01T08:52:06.744Z,44.28
2022-10-01T08:53:18.793Z,45.33
2022-10-01T08:54:32.876Z,47.22
2022-10-01T08:55:37.802Z,45.47
2022-10-01T08:56:49.209Z,49.55
2022-10-01T08:58:01.026Z,48.30
2022-10-01T08:59:25.279Z,48.00
2022-10-01T09:00:32.920Z,43.45
2022-10-01T09:01:35.269Z,46.30
2022-10-01T09:02:44.385Z,45.78
2022-10-01T09:03:47.866Z,45.00
2022-10-01T09:05:01.073Z,43.22
2022-10-01T09:06:19.399Z,46.80
2022-10-01T09:08:08.636Z,41.72
2022-10-01T09:09:48.995Z,44.65
2022-10-01T09:11:01.240Z,43.42
2022-10-01T09:12:29.254Z,45.88
2022-10-01T09:13:57.721Z,44.28
2022-10-01T09:15:38.707Z,46.63
2022-10-01T09:17:20.780Z,45.65
2022-10-01T09:18:46.475Z,40.97
2022-10-01T09:20:11.714Z,41.78
2022-10-01T09:21:28.526Z,41.13
2022-10-01T09:22:53.563Z,41.25
2022-10-01T09:24:12.987Z,41.95
2022-10-01T09:25:25.763Z,44.28
2022-10-01T09:26:28.943Z,40.00
2022-10-01T09:27:32.138Z,43.03
2022-10-01T09:28:36.521Z,43.70
2022-10-01T09:30:01.349Z,54.05
2022-10-01T09:31:18.519Z,44.00
2022-10-01T09:32:25.184Z,43.15
2022-10-01T09:33:44.247Z,46.35
2022-10-01T09:34:47.870Z,44.17
2022-10-01T09:36:13.582Z,45.88
2022-10-01T09:37:15.941Z,45.55
2022-10-01T09:38:41.099Z,43.03
2022-10-01T09:40:04.105Z,45.42
2022-10-01T09:41:11.859Z,43.45
2022-10-01T09:42:14.340Z,43.00
2022-10-01T09:43:20.160Z,43.13
2022-10-01T09:44:29.773Z,45.95
2022-10-01T09:45:33.550Z,45.85
2022-10-01T09:46:36.037Z,46.05
2022-10-01T09:47:39.147Z,46.13
2022-10-01T09:48:46.590Z,44.05
2022-10-01T09:49:49.767Z,45.22
2022-10-01T09:51:26.028Z,42.63
2022-10-01T09:52:38.541Z,43.65
2022-10-01T09:53:49.695Z,50.00
2022-10-01T09:55:34.684Z,67.90
2022-10-01T09:56:45.593Z,42.63
2022-10-01T09:58:21.758Z,56.78
2022-10-01T09:59:58.821Z,44.15
2022-10-01T10:01:03.109Z,46.85
2022-10-01T10:02:19.657Z,42.72
2022-10-01T10:03:29.101Z,45.50
2022-10-01T10:04:33.254Z,44.78
2022-10-01T10:05:48.551Z,45.60
2022-10-01T10:06:58.489Z,45.65
2022-10-01T10:08:06.009Z,44.83
2022-10-01T10:09:16.258Z,45.88
2022-10-01T10:10:26.399Z,44.53
2022-10-01T10:11:33.545Z,46.40
2022-10-01T10:12:37.065Z,44.03
2022-10-01T10:13:51.122Z,45.00
2022-10-01T10:14:57.063Z,45.60
2022-10-01T10:16:00.656Z,46.38
2022-10-01T10:17:11.659Z,46.90
2022-10-01T10:18:23.652Z,44.78
2022-10-01T10:19:29.690Z,44.38
2022-10-01T10:20:40.712Z,47.78
2022-10-01T10:21:54.294Z,45.85
2022-10-01T10:23:16.114Z,41.75
2022-10-01T10:24:33.513Z,42.35
2022-10-01T10:25:35.792Z,49.53
2022-10-01T10:26:41.358Z,45.53
2022-10-01T10:27:56.968Z,46.80
2022-10-01T10:29:02.715Z,44.13
2022-10-01T10:30:15.407Z,46.47
2022-10-01T10:31:41.904Z,42.85
2022-10-01T10:32:47.308Z,42.05
2022-10-01T10:33:52.052Z,44.08
2022-10-01T10:35:02.888Z,42.10
2022-10-01T10:36:09.875Z,41.60
2022-10-01T10:37:18.699Z,44.40
2022-10-01T10:38:21.224Z,41.88
2022-10-01T10:39:31.304Z,44.35
2022-10-01T10:40:44.508Z,39.33
2022-10-01T10:41:50.382Z,44.08
2022-10-01T10:42:55.777Z,40.15
2022-10-01T10:44:08.156Z,41.78
2022-10-01T10:45:20.339Z,46.92
2022-10-01T10:46:30.287Z,43.05
2022-10-01T10:47:43.550Z,40.00
2022-10-01T10:48:46.832Z,44.67
2022-10-01T10:49:55.744Z,42.33
2022-10-01T10:52:40.000Z,40.78
2022-10-01T10:55:22.158Z,38.67
2022-10-01T10:56:25.610Z,39.30
2022-10-01T10:57:34.261Z,39.25
2022-10-01T10:58:40.721Z,39.40
2022-10-01T10:59:42.710Z,39.70
2022-10-01T11:00:50.625Z,37.42
2022-10-01T11:01:53.466Z,38.97
2022-10-01T11:03:04.497Z,38.72
2022-10-01T11:04:21.197Z,39.67
2022-10-01T11:05:30.422Z,41.17
2022-10-01T11:06:32.932Z,45.40
2022-10-01T11:07:38.062Z,36.50
2022-10-01T11:08:53.128Z,37.28
2022-10-01T11:10:06.217Z,38.33
2022-10-01T11:11:46.196Z,51.92
2022-10-01T11:13:07.181Z,43.53
2022-10-01T11:14:40.760Z,41.20
2022-10-01T11:16:04.584Z,36.20
2022-10-01T11:17:34.604Z,37.03
2022-10-01T11:18:40.129Z,34.38
2022-10-01T11:19:47.137Z,35.42
2022-10-01T11:21:00.400Z,34.88
2022-10-01T11:22:23.607Z,35.50
2022-10-01T11:23:42.500Z,34.78
2022-10-01T11:25:17.078Z,36.95
2022-10-01T11:26:41.031Z,38.65
2022-10-01T11:28:04.782Z,49.33
2022-10-01T11:29:33.017Z,36.30
2022-10-01T11:31:05.551Z,32.75
2022-10-01T11:32:22.624Z,34.72
2022-10-01T11:33:46.844Z,32.30
2022-10-01T11:35:24.832Z,35.45
2022-10-01T11:36:46.116Z,32.45
2022-10-01T11:39:32.934Z,33.33
2022-10-01T11:40:43.888Z,35.97
2022-10-01T11:41:53.432Z,34.03
2022-10-01T11:43:03.205Z,34.40
2022-10-01T11:44:38.438Z,34.45
2022-10-01T11:46:05.918Z,34.15
2022-10-01T11:47:19.471Z,35.10
2022-10-01T11:48:41.100Z,32.20
2022-10-01T11:50:04.632Z,33.63
2022-10-01T11:51:19.347Z,32.45
2022-10-01T11:52:34.346Z,32.92
2022-10-01T11:53:48.853Z,32.08
2022-10-01T11:55:28.849Z,29.98
2022-10-01T11:57:06.025Z,34.72
2022-10-01T11:58:44.309Z,36.65
2022-10-01T12:00:00.342Z,33.45
2022-10-01T12:01:19.982Z,30.48
2022-10-01T12:02:59.432Z,35.35
2022-10-01T12:04:32.700Z,32.05
2022-10-01T12:05:35.549Z,36.75
2022-10-01T12:07:17.090Z,31.80
2022-10-01T12:08:35.192Z,35.58
2022-10-01T12:10:03.704Z,28.80
2022-10-01T12:11:22.318Z,31.48
2022-10-01T12:12:50.180Z,30.98
2022-10-01T12:14:08.226Z,32.25
2022-10-01T12:15:47.153Z,33.88
2022-10-01T12:16:59.923Z,35.92
2022-10-01T12:18:12.529Z,30.35
2022-10-01T12:19:23.900Z,32.05
2022-10-01T12:20:36.720Z,33.75
2022-10-01T12:21:59.568Z,29.83
2022-10-01T12:23:09.326Z,30.30
2022-10-01T12:24:20.021Z,33.10
2022-10-01T12:25:41.002Z,33.03
2022-10-01T12:28:23.376Z,32.45
2022-10-01T12:29:56.066Z,33.30
2022-10-01T12:31:15.459Z,36.03
2022-10-01T12:32:41.230Z,32.55
2022-10-01T12:33:51.671Z,35.28
2022-10-01T12:35:07.821Z,32.45
2022-10-01T12:36:43.185Z,34.25
2022-10-01T12:38:16.557Z,31.42
2022-10-01T12:39:24.211Z,33.50
2022-10-01T12:40:46.686Z,32.97
2022-10-01T12:42:31.380Z,33.53
2022-10-01T12:44:11.581Z,31.42
2022-10-01T12:45:44.009Z,34.38
2022-10-01T12:47:23.414Z,31.58
2022-10-01T12:49:04.398Z,34.83
2022-10-01T12:50:53.348Z,34.72
2022-10-01T12:52:20.804Z,33.53
2022-10-01T12:53:52.166Z,36.15
2022-10-01T12:55:19.537Z,33.35
2022-10-01T12:56:31.062Z,35.05
2022-10-01T12:58:01.157Z,34.70
2022-10-01T12:59:14.540Z,33.67
2022-10-01T13:00:25.900Z,33.15
2022-10-01T13:01:50.531Z,32.67
2022-10-01T13:03:13.596Z,33.33
2022-10-01T13:04:48.286Z,32.47
2022-10-01T13:06:08.730Z,30.85
2022-10-01T13:07:30.121Z,30.50
2022-10-01T13:09:06.094Z,32.90
2022-10-01T13:10:31.674Z,30.27
2022-10-01T13:11:56.143Z,32.42
2022-10-01T13:13:15.342Z,33.40
2022-10-01T13:14:19.273Z,32.90
2022-10-01T13:15:25.980Z,33.45
2022-10-01T13:16:34.117Z,33.85
2022-10-01T13:17:43.827Z,40.88
2022-10-01T13:19:06.037Z,37.55
2022-10-01T13:20:36.155Z,36.22
2022-10-01T13:21:57.652Z,34.13
2022-10-01T13:23:14.080Z,32.42
2022-10-01T13:24:44.638Z,40.10
2022-10-01T13:26:00.624Z,32.88
2022-10-01T13:27:20.413Z,39.58
2022-10-01T13:28:34.359Z,34.95
2022-10-01T13:29:45.414Z,37.58
2022-10-01T13:30:53.272Z,39.90
2022-10-01T13:32:02.826Z,34.33
2022-10-01T13:33:29.621Z,39.67
2022-10-01T13:34:43.441Z,38.38
2022-10-01T13:35:56.150Z,38.22
2022-10-01T13:37:14.296Z,39.03
2022-10-01T13:38:29.427Z,34.35
2022-10-01T13:39:38.888Z,36.53
2022-10-01T13:40:42.123Z,39.50
2022-10-01T13:41:44.590Z,34.78
2022-10-01T13:42:48.798Z,37.65
2022-10-01T13:44:14.224Z,40.15
2022-10-01T13:45:37.296Z,39.03
2022-10-01T13:46:57.035Z,39.55
2022-10-01T13:48:15.041Z,57.45
2022-10-01T13:49:27.383Z,37.77
2022-10-01T13:50:30.007Z,39.33
2022-10-01T13:51:37.595Z,34.85
2022-10-01T13:52:40.005Z,38.05
2022-10-01T13:53:42.272Z,37.88
2022-10-01T13:54:51.391Z,39.03
2022-10-01T13:55:55.055Z,37.00
2022-10-01T13:57:08.954Z,38.03
2022-10-01T13:58:43.732Z,39.25
2022-10-01T13:59:45.873Z,39.20
2022-10-01T14:00:54.255Z,39.65
2022-10-01T14:01:58.847Z,39.90
2022-10-01T14:03:30.535Z,39.20
2022-10-01T14:04:43.974Z,47.17
2022-10-01T14:05:47.902Z,42.90
2022-10-01T14:07:17.864Z,39.45
2022-10-01T14:08:38.018Z,39.03
2022-10-01T14:09:50.598Z,38.08
2022-10-01T14:11:20.251Z,42.78
2022-10-01T14:13:06.803Z,41.65
2022-10-01T14:14:41.216Z,42.53
2022-10-01T14:15:59.316Z,60.78
2022-10-01T14:17:02.091Z,42.30
2022-10-01T14:18:11.591Z,41.22
2022-10-01T14:19:26.020Z,45.65
2022-10-01T14:20:34.478Z,44.35
2022-10-01T14:21:41.764Z,42.97
2022-10-01T14:22:49.634Z,41.70
2022-10-01T14:24:20.949Z,40.05
2022-10-01T14:25:35.548Z,39.35
2022-10-01T14:26:47.220Z,40.45
2022-10-01T14:28:16.997Z,42.60
2022-10-01T14:29:46.790Z,43.25
2022-10-01T14:31:12.719Z,39.60
2022-10-01T14:32:31.520Z,52.03
2022-10-01T14:35:04.766Z,104.95
2022-10-01T14:36:15.775Z,218.43
2022-10-01T14:37:19.918Z,217.85
2022-10-01T14:38:22.819Z,161.07
2022-10-01T14:39:31.632Z,115.18
2022-10-01T14:40:42.266Z,121.30
2022-10-01T14:41:46.438Z,62.70
2022-10-01T14:43:17.160Z,79.07
2022-10-01T14:44:27.058Z,71.82
2022-10-01T14:45:30.732Z,71.30
2022-10-01T14:46:36.893Z,56.10
2022-10-01T14:47:40.803Z,49.10
2022-10-01T14:48:43.968Z,48.60
2022-10-01T14:49:46.493Z,48.95
2022-10-01T14:50:52.961Z,44.35
2022-10-01T14:52:07.156Z,47.30
2022-10-01T14:53:16.993Z,73.47
2022-10-01T14:54:20.828Z,60.13
2022-10-01T14:55:24.450Z,57.15
2022-10-01T14:56:28.419Z,52.78
2022-10-01T14:57:42.856Z,49.70
2022-10-01T14:58:55.192Z,48.63
2022-10-01T15:00:00.903Z,49.00
2022-10-01T15:01:05.096Z,49.15
2022-10-01T15:02:33.303Z,51.13
2022-10-01T15:03:40.944Z,61.70
2022-10-01T15:04:52.060Z,49.03
2022-10-01T15:06:04.113Z,47.47
2022-10-01T15:07:13.874Z,44.60
2022-10-01T15:08:16.204Z,49.47
2022-10-01T15:09:19.761Z,46.40
2022-10-01T15:10:27.035Z,47.35
2022-10-01T15:11:32.037Z,42.35
2022-10-01T15:12:41.575Z,48.03
2022-10-01T15:13:46.353Z,49.25
2022-10-01T15:14:54.245Z,53.60
2022-10-01T15:15:59.645Z,109.97
2022-10-01T15:17:04.958Z,105.05
2022-10-01T15:18:08.376Z,66.18
2022-10-01T15:19:21.153Z,66.32
2022-10-01T15:20:23.497Z,49.05
2022-10-01T15:21:49.499Z,52.10
2022-10-01T15:23:01.021Z,46.53
2022-10-01T15:24:19.030Z,52.53
2022-10-01T15:25:28.394Z,45.42
2022-10-01T15:26:33.646Z,49.55
2022-10-01T15:27:37.585Z,44.72
2022-10-01T15:28:39.926Z,45.42
2022-10-01T15:29:43.459Z,45.25
2022-10-01T15:30:48.040Z,45.10
2022-10-01T15:31:51.819Z,44.90
2022-10-01T15:32:54.907Z,48.22
2022-10-01T15:33:57.410Z,50.08
2022-10-01T15:35:02.133Z,52.47
2022-10-01T15:36:06.145Z,64.78
2022-10-01T15:37:18.086Z,63.60
2022-10-01T15:38:21.199Z,84.88
2022-10-01T15:39:27.248Z,72.70
2022-10-01T15:40:36.707Z,87.38
2022-10-01T15:41:40.366Z,71.93
2022-10-01T15:43:09.350Z,93.22
2022-10-01T15:44:46.575Z,84.68
2022-10-01T15:46:03.192Z,78.80
2022-10-01T15:47:20.476Z,74.97
2022-10-01T15:48:30.669Z,76.95
2022-10-01T15:49:33.690Z,58.78
2022-10-01T15:50:39.190Z,74.35
2022-10-01T15:52:20.047Z,55.78
2022-10-01T15:53:23.867Z,61.25
2022-10-01T15:54:26.809Z,53.28
2022-10-01T15:55:31.816Z,55.10
2022-10-01T15:56:35.171Z,60.42
2022-10-01T15:57:38.708Z,60.63
2022-10-01T15:58:51.561Z,81.78
2022-10-01T15:59:58.271Z,76.00
2022-10-01T16:01:11.247Z,56.92
2022-10-01T16:02:21.088Z,59.67
2022-10-01T16:03:27.548Z,64.00
2022-10-01T16:04:32.067Z,54.92
2022-10-01T16:05:44.916Z,49.17
2022-10-01T16:06:50.335Z,49.75
2022-10-01T16:07:58.685Z,51.10
2022-10-01T16:09:06.357Z,55.10
2022-10-01T16:10:32.287Z,58.00
2022-10-01T16:11:56.912Z,74.03
2022-10-01T16:13:39.996Z,56.42
2022-10-01T16:14:44.547Z,63.50
2022-10-01T16:16:07.044Z,50.65
2022-10-01T16:17:19.616Z,48.47
2022-10-01T16:18:22.609Z,54.03
2022-10-01T16:19:33.875Z,57.47
2022-10-01T16:20:45.591Z,49.75
2022-10-01T16:22:16.798Z,153.48
2022-10-01T16:23:34.280Z,97.47
2022-10-01T16:24:43.803Z,70.18
2022-10-01T16:25:46.413Z,55.35
2022-10-01T16:26:48.973Z,54.20
2022-10-01T16:28:04.484Z,54.78
2022-10-01T16:29:20.923Z,53.75
2022-10-01T16:30:29.565Z,49.38
2022-10-01T16:31:35.429Z,46.28
2022-10-01T16:32:38.696Z,47.33
2022-10-01T16:33:40.998Z,47.72
2022-10-01T16:34:48.447Z,48.63
2022-10-01T16:35:51.134Z,48.30
2022-10-01T16:36:53.498Z,43.33
2022-10-01T16:37:58.174Z,46.83
2022-10-01T16:39:02.474Z,44.53
2022-10-01T16:40:08.686Z,50.10
2022-10-01T16:41:23.967Z,45.08
2022-10-01T16:42:26.285Z,47.10
2022-10-01T16:43:28.741Z,44.83
2022-10-01T16:44:32.729Z,43.55
2022-10-01T16:45:43.198Z,45.95
2022-10-01T16:46:46.236Z,43.13
2022-10-01T16:47:49.126Z,43.30
2022-10-01T16:48:52.473Z,40.55
2022-10-01T16:49:57.452Z,43.75
2022-10-01T16:50:59.555Z,49.08
2022-10-01T16:52:03.230Z,41.63
2022-10-01T16:53:05.529Z,39.58
2022-10-01T16:54:27.619Z,37.70
2022-10-01T16:55:36.777Z,39.88
2022-10-01T16:56:41.804Z,40.40
2022-10-01T16:57:44.858Z,45.03
2022-10-01T16:58:47.178Z,37.08
2022-10-01T16:59:49.779Z,38.03
2022-10-01T17:00:53.564Z,37.03
2022-10-01T17:01:57.227Z,37.33
2022-10-01T17:03:00.475Z,45.65
2022-10-01T17:04:02.717Z,39.35
2022-10-01T17:05:06.517Z,41.63
2022-10-01T17:06:08.917Z,40.85
2022-10-01T17:07:11.734Z,45.60
2022-10-01T17:08:15.433Z,61.60
2022-10-01T17:09:19.688Z,43.13
2022-10-01T17:10:24.024Z,37.85
2022-10-01T17:11:27.435Z,34.47
2022-10-01T17:12:30.753Z,35.63
2022-10-01T17:13:34.679Z,32.63
2022-10-01T17:14:37.862Z,34.78
2022-10-01T17:15:45.586Z,34.40
2022-10-01T17:16:50.882Z,37.00
2022-10-01T17:18:00.072Z,33.70
2022-10-01T17:20:49.863Z,37.60
2022-10-01T17:21:53.356Z,37.97
2022-10-01T17:22:57.915Z,38.00
2022-10-01T17:24:01.096Z,35.35
2022-10-01T17:25:03.911Z,34.22
2022-10-01T17:26:09.777Z,33.95
2022-10-01T17:27:12.396Z,37.03
2022-10-01T17:28:17.768Z,36.67
2022-10-01T17:29:21.625Z,39.47
2022-10-01T17:30:24.288Z,38.20
2022-10-01T17:31:27.719Z,40.13
2022-10-01T17:32:32.452Z,35.92
2022-10-01T17:33:35.310Z,37.13
2022-10-01T17:34:38.289Z,33.50
2022-10-01T17:35:43.545Z,36.58
2022-10-01T17:36:46.160Z,38.25
2022-10-01T17:37:48.668Z,35.65
2022-10-01T17:38:52.263Z,37.67
2022-10-01T17:39:55.094Z,36.95
2022-10-01T17:41:00.256Z,38.33
2022-10-01T17:42:02.562Z,35.40
2022-10-01T17:43:05.230Z,38.65
2022-10-01T17:44:07.864Z,44.00
2022-10-01T17:45:12.078Z,71.78
2022-10-01T17:46:14.614Z,47.78
2022-10-01T17:47:17.396Z,45.13
2022-10-01T17:48:21.979Z,39.45
2022-10-01T17:49:24.479Z,39.55
2022-10-01T17:50:27.108Z,46.95
2022-10-01T17:51:29.364Z,47.78
2022-10-01T17:52:33.675Z,43.28
2022-10-01T17:53:42.632Z,39.53
2022-10-01T17:54:45.659Z,40.83
2022-10-01T17:55:47.818Z,40.63
2022-10-01T17:56:58.213Z,41.00
2022-10-01T17:58:01.559Z,38.65
2022-10-01T17:59:04.477Z,41.63
2022-10-01T18:00:09.094Z,40.08
2022-10-01T18:01:20.221Z,39.85
2022-10-01T18:02:42.213Z,41.47
2022-10-01T18:03:44.912Z,40.85
2022-10-01T18:04:47.796Z,41.15
2022-10-01T18:05:51.070Z,44.63
2022-10-01T18:06:59.654Z,43.00
2022-10-01T18:08:03.205Z,43.08
2022-10-01T18:09:06.340Z,41.40
2022-10-01T18:10:12.426Z,43.15
2022-10-01T18:11:14.631Z,42.17
2022-10-01T18:12:17.147Z,39.10
2022-10-01T18:13:19.398Z,40.92
2022-10-01T18:14:21.997Z,42.40
2022-10-01T18:15:24.955Z,42.30
2022-10-01T18:16:29.120Z,43.75
2022-10-01T18:17:36.795Z,42.20
2022-10-01T18:20:02.847Z,42.80
2022-10-01T18:21:09.300Z,44.92
2022-10-01T18:22:14.578Z,43.53
2022-10-01T18:23:18.099Z,42.63
2022-10-01T18:24:20.466Z,42.33
2022-10-01T18:25:22.785Z,41.42
2022-10-01T18:26:25.143Z,45.53
2022-10-01T18:27:27.352Z,59.08
2022-10-01T18:28:29.995Z,45.50
2022-10-01T18:29:32.973Z,45.45
2022-10-01T18:30:36.348Z,41.85
2022-10-01T18:31:45.365Z,42.80
2022-10-01T18:34:02.176Z,42.83
2022-10-01T18:35:20.075Z,46.58
2022-10-01T18:36:37.064Z,50.15
2022-10-01T18:37:40.352Z,52.13
2022-10-01T18:38:43.238Z,42.38
2022-10-01T18:39:53.007Z,44.85
2022-10-01T18:41:02.042Z,46.42
2022-10-01T18:43:24.951Z,42.97
2022-10-01T18:44:27.407Z,47.03
2022-10-01T18:45:52.907Z,43.55
2022-10-01T18:47:11.607Z,44.03
2022-10-01T18:48:40.397Z,43.65
2022-10-01T18:50:27.728Z,45.45
2022-10-01T18:51:56.736Z,44.33
2022-10-01T18:53:34.919Z,46.13
2022-10-01T18:54:38.092Z,44.30
2022-10-01T18:55:49.311Z,45.80